sensor_id;sensor_type;location;lat;lon;timestamp;temperature;humidity
54930;DHT22;40833;53.238;6.576;2023-03-01T00:01:14;-1.10;99.90
54930;DHT22;40833;53.238;6.576;2023-03-01T00:03:41;-1.10;99.90
54930;DHT22;40833;53.238;6.576;2023-03-01T00:06:08;-1.10;99.90
54930;DHT22;40833;53.238;6.576;2023-03-01T00:08:35;-1.90;99.90
54930;DHT22;40833;53.238;6.576;2023-03-01T00:11:07;-0.30;99.90
54930;DHT22;40833;53.238;6.576;2023-03-01T00:13:35;-1.20;99.90
54930;DHT22;40833;53.238;6.576;2023-03-01T00:16:19;-1.20;99.90
54930;DHT22;40833;53.238;6.576;2023-03-01T00:18:47;-0.70;99.90
54930;DHT22;40833;53.238;6.576;2023-03-01T00:21:13;-1.20;99.90
54930;DHT22;40833;53.238;6.576;2023-03-01T00:23:39;0.00;99.90
54930;DHT22;40833;53.238;6.576;2023-03-01T00:26:07;-1.30;99.90
54930;DHT22;40833;53.238;6.576;2023-03-01T00:28:33;-1.10;99.90
54930;DHT22;40833;53.238;6.576;2023-03-01T00:31:07;1.00;99.90
54930;DHT22;40833;53.238;6.576;2023-03-01T00:36:00;-1.40;99.90
54930;DHT22;40833;53.238;6.576;2023-03-01T00:38:26;0.50;99.90
54930;DHT22;40833;53.238;6.576;2023-03-01T00:40:52;-0.10;99.90
54930;DHT22;40833;53.238;6.576;2023-03-01T00:43:18;-1.20;99.90
54930;DHT22;40833;53.238;6.576;2023-03-01T00:45:44;-0.20;99.90
54930;DHT22;40833;53.238;6.576;2023-03-01T00:48:09;-1.50;99.90
54930;DHT22;40833;53.238;6.576;2023-03-01T00:50:35;-1.50;99.90
54930;DHT22;40833;53.238;6.576;2023-03-01T00:53:01;0.60;99.90
54930;DHT22;40833;53.238;6.576;2023-03-01T00:55:27;-1.50;99.90
54930;DHT22;40833;53.238;6.576;2023-03-01T00:57:52;-1.60;99.90
54930;DHT22;40833;53.238;6.576;2023-03-01T01:00:19;-1.60;99.90
54930;DHT22;40833;53.238;6.576;2023-03-01T01:02:45;-1.60;99.90
54930;DHT22;40833;53.238;6.576;2023-03-01T01:05:12;1.10;99.90
54930;DHT22;40833;53.238;6.576;2023-03-01T01:07:38;0.80;99.90
54930;DHT22;40833;53.238;6.576;2023-03-01T01:10:04;-1.60;99.90
54930;DHT22;40833;53.238;6.576;2023-03-01T01:12:30;-1.60;99.90
54930;DHT22;40833;53.238;6.576;2023-03-01T01:14:56;-1.00;99.90
54930;DHT22;40833;53.238;6.576;2023-03-01T01:17:21;-1.70;99.90
54930;DHT22;40833;53.238;6.576;2023-03-01T01:19:47;1.10;99.90
54930;DHT22;40833;53.238;6.576;2023-03-01T01:22:13;-1.70;99.90
54930;DHT22;40833;53.238;6.576;2023-03-01T01:24:38;-1.70;99.90
54930;DHT22;40833;53.238;6.576;2023-03-01T01:27:04;-1.80;99.90
54930;DHT22;40833;53.238;6.576;2023-03-01T01:29:31;-1.80;99.90
54930;DHT22;40833;53.238;6.576;2023-03-01T01:31:57;-1.90;99.90
54930;DHT22;40833;53.238;6.576;2023-03-01T01:34:22;-1.90;99.90
54930;DHT22;40833;53.238;6.576;2023-03-01T01:36:52;0.30;99.90
54930;DHT22;40833;53.238;6.576;2023-03-01T01:39:22;-0.90;99.90
54930;DHT22;40833;53.238;6.576;2023-03-01T01:41:48;-1.30;99.90
54930;DHT22;40833;53.238;6.576;2023-03-01T01:44:25;-2.00;99.90
54930;DHT22;40833;53.238;6.576;2023-03-01T01:47:00;-2.00;99.90
54930;DHT22;40833;53.238;6.576;2023-03-01T01:49:32;-2.00;99.90
54930;DHT22;40833;53.238;6.576;2023-03-01T01:54:45;-2.00;99.90
54930;DHT22;40833;53.238;6.576;2023-03-01T01:57:16;-2.00;99.90
54930;DHT22;40833;53.238;6.576;2023-03-01T01:59:47;-2.10;99.90
54930;DHT22;40833;53.238;6.576;2023-03-01T02:02:15;-2.10;99.90
54930;DHT22;40833;53.238;6.576;2023-03-01T02:04:41;-0.30;99.90
54930;DHT22;40833;53.238;6.576;2023-03-01T02:07:15;-2.10;99.90
54930;DHT22;40833;53.238;6.576;2023-03-01T02:09:45;-0.80;99.90
54930;DHT22;40833;53.238;6.576;2023-03-01T02:12:12;-2.20;99.90
54930;DHT22;40833;53.238;6.576;2023-03-01T02:14:38;-1.50;99.90
54930;DHT22;40833;53.238;6.576;2023-03-01T02:17:03;-2.20;99.90
54930;DHT22;40833;53.238;6.576;2023-03-01T02:22:28;-2.20;99.90
54930;DHT22;40833;53.238;6.576;2023-03-01T02:27:29;-2.30;99.90
54930;DHT22;40833;53.238;6.576;2023-03-01T02:29:58;-0.30;99.90
54930;DHT22;40833;53.238;6.576;2023-03-01T02:32:24;-2.10;99.90
54930;DHT22;40833;53.238;6.576;2023-03-01T02:34:54;-2.30;99.90
54930;DHT22;40833;53.238;6.576;2023-03-01T02:37:21;-2.30;99.90
54930;DHT22;40833;53.238;6.576;2023-03-01T02:39:56;-0.90;99.90
54930;DHT22;40833;53.238;6.576;2023-03-01T02:42:28;-2.40;99.90
54930;DHT22;40833;53.238;6.576;2023-03-01T02:44:56;-1.40;99.90
54930;DHT22;40833;53.238;6.576;2023-03-01T02:47:22;-2.50;99.90
54930;DHT22;40833;53.238;6.576;2023-03-01T02:49:47;-2.50;99.90
54930;DHT22;40833;53.238;6.576;2023-03-01T02:55:36;-2.50;99.90
54930;DHT22;40833;53.238;6.576;2023-03-01T02:58:02;-0.60;99.90
54930;DHT22;40833;53.238;6.576;2023-03-01T03:00:33;0.10;99.90
54930;DHT22;40833;53.238;6.576;2023-03-01T03:02:59;-2.60;99.90
54930;DHT22;40833;53.238;6.576;2023-03-01T03:05:30;-2.60;99.90
54930;DHT22;40833;53.238;6.576;2023-03-01T03:07:56;-2.00;99.90
54930;DHT22;40833;53.238;6.576;2023-03-01T03:10:28;-1.70;99.90
54930;DHT22;40833;53.238;6.576;2023-03-01T03:13:00;-2.70;99.90
54930;DHT22;40833;53.238;6.576;2023-03-01T03:15:28;0.10;99.90
54930;DHT22;40833;53.238;6.576;2023-03-01T03:17:55;-2.70;99.90
54930;DHT22;40833;53.238;6.576;2023-03-01T03:20:24;-2.30;99.90
54930;DHT22;40833;53.238;6.576;2023-03-01T03:22:52;-1.00;99.90
54930;DHT22;40833;53.238;6.576;2023-03-01T03:25:19;-2.70;99.90
54930;DHT22;40833;53.238;6.576;2023-03-01T03:27:48;-2.70;99.90
54930;DHT22;40833;53.238;6.576;2023-03-01T03:30:16;-2.80;99.90
54930;DHT22;40833;53.238;6.576;2023-03-01T03:32:45;-2.70;99.90
54930;DHT22;40833;53.238;6.576;2023-03-01T03:38:05;-2.80;99.90
54930;DHT22;40833;53.238;6.576;2023-03-01T03:40:33;-2.90;99.90
54930;DHT22;40833;53.238;6.576;2023-03-01T03:42:58;-2.80;99.90
54930;DHT22;40833;53.238;6.576;2023-03-01T03:45:24;-2.00;99.90
54930;DHT22;40833;53.238;6.576;2023-03-01T03:47:50;-2.80;99.90
54930;DHT22;40833;53.238;6.576;2023-03-01T03:50:17;-2.80;99.90
54930;DHT22;40833;53.238;6.576;2023-03-01T03:52:43;-2.80;99.90
54930;DHT22;40833;53.238;6.576;2023-03-01T03:55:10;-1.40;99.90
54930;DHT22;40833;53.238;6.576;2023-03-01T03:57:40;-0.80;99.90
54930;DHT22;40833;53.238;6.576;2023-03-01T04:00:11;-2.80;99.90
54930;DHT22;40833;53.238;6.576;2023-03-01T04:02:43;-2.80;99.90
54930;DHT22;40833;53.238;6.576;2023-03-01T04:05:11;-1.50;99.90
54930;DHT22;40833;53.238;6.576;2023-03-01T04:07:38;-2.90;99.90
54930;DHT22;40833;53.238;6.576;2023-03-01T04:10:05;-2.90;99.90
54930;DHT22;40833;53.238;6.576;2023-03-01T04:12:33;-2.90;99.90
54930;DHT22;40833;53.238;6.576;2023-03-01T04:15:00;-0.40;99.90
54930;DHT22;40833;53.238;6.576;2023-03-01T04:17:26;-3.10;99.90
54930;DHT22;40833;53.238;6.576;2023-03-01T04:19:51;-0.50;99.90
54930;DHT22;40833;53.238;6.576;2023-03-01T04:22:17;-0.90;99.90
54930;DHT22;40833;53.238;6.576;2023-03-01T04:24:46;-3.40;99.90
54930;DHT22;40833;53.238;6.576;2023-03-01T04:27:12;-3.40;99.90
54930;DHT22;40833;53.238;6.576;2023-03-01T04:29:38;-3.40;99.90
54930;DHT22;40833;53.238;6.576;2023-03-01T04:32:03;-3.40;99.90
54930;DHT22;40833;53.238;6.576;2023-03-01T04:34:30;-3.40;99.90
54930;DHT22;40833;53.238;6.576;2023-03-01T04:36:55;-3.40;99.90
54930;DHT22;40833;53.238;6.576;2023-03-01T04:39:21;-3.40;99.90
54930;DHT22;40833;53.238;6.576;2023-03-01T04:41:47;-3.50;99.90
54930;DHT22;40833;53.238;6.576;2023-03-01T04:44:13;-0.60;99.90
54930;DHT22;40833;53.238;6.576;2023-03-01T04:46:38;-3.00;99.90
54930;DHT22;40833;53.238;6.576;2023-03-01T04:49:04;-2.00;99.90
54930;DHT22;40833;53.238;6.576;2023-03-01T04:51:31;-3.50;99.90
54930;DHT22;40833;53.238;6.576;2023-03-01T04:53:58;-3.50;99.90
54930;DHT22;40833;53.238;6.576;2023-03-01T04:56:25;-1.90;99.90
54930;DHT22;40833;53.238;6.576;2023-03-01T04:58:53;-3.50;99.90
54930;DHT22;40833;53.238;6.576;2023-03-01T05:01:20;-3.50;99.90
54930;DHT22;40833;53.238;6.576;2023-03-01T05:03:50;-3.50;99.90
54930;DHT22;40833;53.238;6.576;2023-03-01T05:06:17;-3.50;99.90
54930;DHT22;40833;53.238;6.576;2023-03-01T05:08:43;-1.00;99.90
54930;DHT22;40833;53.238;6.576;2023-03-01T05:11:10;-2.50;99.90
54930;DHT22;40833;53.238;6.576;2023-03-01T05:13:37;-3.50;99.90
54930;DHT22;40833;53.238;6.576;2023-03-01T05:16:04;-3.50;99.90
54930;DHT22;40833;53.238;6.576;2023-03-01T05:18:31;-3.50;99.90
54930;DHT22;40833;53.238;6.576;2023-03-01T05:21:07;-2.30;99.90
54930;DHT22;40833;53.238;6.576;2023-03-01T05:23:34;-3.50;99.90
54930;DHT22;40833;53.238;6.576;2023-03-01T05:26:01;-3.50;99.90
54930;DHT22;40833;53.238;6.576;2023-03-01T05:28:27;-2.50;99.90
54930;DHT22;40833;53.238;6.576;2023-03-01T05:30:54;-1.60;99.90
54930;DHT22;40833;53.238;6.576;2023-03-01T05:33:20;-3.50;99.90
54930;DHT22;40833;53.238;6.576;2023-03-01T05:35:48;-3.50;99.90
54930;DHT22;40833;53.238;6.576;2023-03-01T05:38:15;-3.40;99.90
54930;DHT22;40833;53.238;6.576;2023-03-01T05:40:46;-3.50;99.90
54930;DHT22;40833;53.238;6.576;2023-03-01T05:43:14;-3.50;99.90
54930;DHT22;40833;53.238;6.576;2023-03-01T05:45:40;-3.50;99.90
54930;DHT22;40833;53.238;6.576;2023-03-01T05:48:07;-3.50;99.90
54930;DHT22;40833;53.238;6.576;2023-03-01T05:50:40;-3.50;99.90
54930;DHT22;40833;53.238;6.576;2023-03-01T05:53:14;-3.50;99.90
54930;DHT22;40833;53.238;6.576;2023-03-01T05:55:41;-3.50;99.90
54930;DHT22;40833;53.238;6.576;2023-03-01T05:58:12;-3.30;99.90
54930;DHT22;40833;53.238;6.576;2023-03-01T06:00:39;-3.10;99.90
54930;DHT22;40833;53.238;6.576;2023-03-01T06:03:05;-3.60;99.90
54930;DHT22;40833;53.238;6.576;2023-03-01T06:05:31;-3.60;99.90
54930;DHT22;40833;53.238;6.576;2023-03-01T06:08:01;-3.60;99.90
54930;DHT22;40833;53.238;6.576;2023-03-01T06:10:27;-3.60;99.90
54930;DHT22;40833;53.238;6.576;2023-03-01T06:12:53;-2.30;99.90
54930;DHT22;40833;53.238;6.576;2023-03-01T06:15:19;-3.60;99.90
54930;DHT22;40833;53.238;6.576;2023-03-01T06:17:46;-3.60;99.90
54930;DHT22;40833;53.238;6.576;2023-03-01T06:20:14;-1.60;99.90
54930;DHT22;40833;53.238;6.576;2023-03-01T06:22:41;-3.60;99.90
54930;DHT22;40833;53.238;6.576;2023-03-01T06:25:07;-3.60;99.90
54930;DHT22;40833;53.238;6.576;2023-03-01T06:27:33;-3.60;99.90
54930;DHT22;40833;53.238;6.576;2023-03-01T06:29:59;-1.90;99.90
54930;DHT22;40833;53.238;6.576;2023-03-01T06:32:25;-3.20;99.90
54930;DHT22;40833;53.238;6.576;2023-03-01T06:34:51;-1.80;99.90
54930;DHT22;40833;53.238;6.576;2023-03-01T06:37:16;-3.60;99.90
54930;DHT22;40833;53.238;6.576;2023-03-01T06:39:42;-3.60;99.90
54930;DHT22;40833;53.238;6.576;2023-03-01T06:42:09;-3.60;99.90
54930;DHT22;40833;53.238;6.576;2023-03-01T06:44:37;-1.70;99.90
54930;DHT22;40833;53.238;6.576;2023-03-01T06:47:04;-1.90;99.90
54930;DHT22;40833;53.238;6.576;2023-03-01T06:49:30;-2.30;99.90
54930;DHT22;40833;53.238;6.576;2023-03-01T06:51:56;-3.50;99.90
54930;DHT22;40833;53.238;6.576;2023-03-01T06:54:22;-3.50;99.90
54930;DHT22;40833;53.238;6.576;2023-03-01T06:56:48;-3.50;99.90
54930;DHT22;40833;53.238;6.576;2023-03-01T06:59:15;-3.50;99.90
54930;DHT22;40833;53.238;6.576;2023-03-01T07:01:41;-0.60;99.90
54930;DHT22;40833;53.238;6.576;2023-03-01T07:04:07;-3.40;99.90
54930;DHT22;40833;53.238;6.576;2023-03-01T07:06:32;-3.40;99.90
54930;DHT22;40833;53.238;6.576;2023-03-01T07:08:58;-3.40;99.90
54930;DHT22;40833;53.238;6.576;2023-03-01T07:11:24;-1.10;99.90
54930;DHT22;40833;53.238;6.576;2023-03-01T07:13:49;-0.30;99.90
54930;DHT22;40833;53.238;6.576;2023-03-01T07:16:15;-3.30;99.90
54930;DHT22;40833;53.238;6.576;2023-03-01T07:18:41;-3.20;99.90
54930;DHT22;40833;53.238;6.576;2023-03-01T07:21:08;-0.60;99.90
54930;DHT22;40833;53.238;6.576;2023-03-01T07:23:35;-3.10;99.90
54930;DHT22;40833;53.238;6.576;2023-03-01T07:26:01;-2.60;99.90
54930;DHT22;40833;53.238;6.576;2023-03-01T07:28:27;-3.00;99.90
54930;DHT22;40833;53.238;6.576;2023-03-01T07:30:53;-2.90;99.90
54930;DHT22;40833;53.238;6.576;2023-03-01T07:33:19;-2.10;99.90
54930;DHT22;40833;53.238;6.576;2023-03-01T07:35:44;-2.80;99.90
54930;DHT22;40833;53.238;6.576;2023-03-01T07:38:10;-1.80;99.90
54930;DHT22;40833;53.238;6.576;2023-03-01T07:40:36;-2.70;99.90
54930;DHT22;40833;53.238;6.576;2023-03-01T07:43:02;-0.60;99.90
54930;DHT22;40833;53.238;6.576;2023-03-01T07:45:28;-1.40;99.90
54930;DHT22;40833;53.238;6.576;2023-03-01T07:47:55;-2.50;99.90
54930;DHT22;40833;53.238;6.576;2023-03-01T07:50:21;-2.50;99.90
54930;DHT22;40833;53.238;6.576;2023-03-01T07:52:48;-2.40;99.90
54930;DHT22;40833;53.238;6.576;2023-03-01T07:55:15;-2.30;99.90
54930;DHT22;40833;53.238;6.576;2023-03-01T07:57:41;-2.30;99.90
54930;DHT22;40833;53.238;6.576;2023-03-01T08:00:09;-2.20;99.90
54930;DHT22;40833;53.238;6.576;2023-03-01T08:02:35;-2.10;99.90
54930;DHT22;40833;53.238;6.576;2023-03-01T08:05:01;0.10;99.90
54930;DHT22;40833;53.238;6.576;2023-03-01T08:07:26;-2.00;99.90
54930;DHT22;40833;53.238;6.576;2023-03-01T08:09:52;-1.80;99.90
54930;DHT22;40833;53.238;6.576;2023-03-01T08:12:18;0.70;99.90
54930;DHT22;40833;53.238;6.576;2023-03-01T08:14:43;-0.70;99.90
54930;DHT22;40833;53.238;6.576;2023-03-01T08:17:09;-1.50;99.90
54930;DHT22;40833;53.238;6.576;2023-03-01T08:19:35;-1.40;99.90
54930;DHT22;40833;53.238;6.576;2023-03-01T08:22:04;-0.50;99.90
54930;DHT22;40833;53.238;6.576;2023-03-01T08:24:29;-1.20;99.90
54930;DHT22;40833;53.238;6.576;2023-03-01T08:26:55;-0.80;99.90
54930;DHT22;40833;53.238;6.576;2023-03-01T08:29:22;-0.60;99.90
54930;DHT22;40833;53.238;6.576;2023-03-01T08:31:50;-0.80;99.90
54930;DHT22;40833;53.238;6.576;2023-03-01T08:34:17;-0.70;99.90
54930;DHT22;40833;53.238;6.576;2023-03-01T08:36:45;-0.70;99.90
54930;DHT22;40833;53.238;6.576;2023-03-01T08:39:13;-0.50;99.90
54930;DHT22;40833;53.238;6.576;2023-03-01T08:41:39;-0.20;99.90
54930;DHT22;40833;53.238;6.576;2023-03-01T08:44:06;-0.30;99.90
54930;DHT22;40833;53.238;6.576;2023-03-01T08:46:34;-0.20;99.90
54930;DHT22;40833;53.238;6.576;2023-03-01T08:49:04;-0.10;99.90
54930;DHT22;40833;53.238;6.576;2023-03-01T08:51:31;0.10;99.90
54930;DHT22;40833;53.238;6.576;2023-03-01T08:54:02;0.20;99.90
54930;DHT22;40833;53.238;6.576;2023-03-01T08:56:28;0.50;99.90
54930;DHT22;40833;53.238;6.576;2023-03-01T08:58:54;0.80;99.90
54930;DHT22;40833;53.238;6.576;2023-03-01T09:01:20;1.40;99.90
54930;DHT22;40833;53.238;6.576;2023-03-01T09:03:46;0.60;99.90
54930;DHT22;40833;53.238;6.576;2023-03-01T09:06:12;0.80;99.90
54930;DHT22;40833;53.238;6.576;2023-03-01T09:08:44;1.00;99.90
54930;DHT22;40833;53.238;6.576;2023-03-01T09:11:11;1.10;99.90
54930;DHT22;40833;53.238;6.576;2023-03-01T09:13:37;3.10;99.90
54930;DHT22;40833;53.238;6.576;2023-03-01T09:16:06;1.30;99.90
54930;DHT22;40833;53.238;6.576;2023-03-01T09:18:32;1.40;99.90
54930;DHT22;40833;53.238;6.576;2023-03-01T09:21:06;1.50;99.90
54930;DHT22;40833;53.238;6.576;2023-03-01T09:23:37;2.10;99.90
54930;DHT22;40833;53.238;6.576;2023-03-01T09:26:05;2.50;99.90
54930;DHT22;40833;53.238;6.576;2023-03-01T09:28:31;1.80;99.90
54930;DHT22;40833;53.238;6.576;2023-03-01T09:31:00;2.50;99.90
54930;DHT22;40833;53.238;6.576;2023-03-01T09:33:27;3.20;99.90
54930;DHT22;40833;53.238;6.576;2023-03-01T09:36:01;2.50;99.90
54930;DHT22;40833;53.238;6.576;2023-03-01T09:38:27;3.70;99.90
54930;DHT22;40833;53.238;6.576;2023-03-01T09:40:53;2.20;99.90
54930;DHT22;40833;53.238;6.576;2023-03-01T09:45:54;2.40;99.90
54930;DHT22;40833;53.238;6.576;2023-03-01T09:48:24;5.20;99.90
54930;DHT22;40833;53.238;6.576;2023-03-01T09:50:51;2.60;99.90
54930;DHT22;40833;53.238;6.576;2023-03-01T09:53:30;2.80;99.90
54930;DHT22;40833;53.238;6.576;2023-03-01T09:56:05;2.80;99.90
54930;DHT22;40833;53.238;6.576;2023-03-01T09:58:47;2.90;99.90
54930;DHT22;40833;53.238;6.576;2023-03-01T10:01:30;3.00;99.90
54930;DHT22;40833;53.238;6.576;2023-03-01T10:04:04;3.10;99.90
54930;DHT22;40833;53.238;6.576;2023-03-01T10:06:31;3.90;99.90
54930;DHT22;40833;53.238;6.576;2023-03-01T10:09:05;3.20;99.90
54930;DHT22;40833;53.238;6.576;2023-03-01T10:11:38;3.30;99.90
54930;DHT22;40833;53.238;6.576;2023-03-01T10:14:13;6.00;99.90
54930;DHT22;40833;53.238;6.576;2023-03-01T10:17:05;3.40;99.90
54930;DHT22;40833;53.238;6.576;2023-03-01T10:19:40;3.60;99.90
54930;DHT22;40833;53.238;6.576;2023-03-01T10:22:19;3.70;99.90
54930;DHT22;40833;53.238;6.576;2023-03-01T10:24:49;3.70;99.90
54930;DHT22;40833;53.238;6.576;2023-03-01T10:27:29;3.90;99.90
54930;DHT22;40833;53.238;6.576;2023-03-01T10:30:13;6.40;99.90
54930;DHT22;40833;53.238;6.576;2023-03-01T10:32:42;4.80;99.90
54930;DHT22;40833;53.238;6.576;2023-03-01T10:40:31;4.30;99.90
54930;DHT22;40833;53.238;6.576;2023-03-01T10:43:04;4.90;99.90
54930;DHT22;40833;53.238;6.576;2023-03-01T10:48:24;4.90;99.90
54930;DHT22;40833;53.238;6.576;2023-03-01T10:56:21;4.60;99.90
54930;DHT22;40833;53.238;6.576;2023-03-01T10:59:22;4.80;99.90
54930;DHT22;40833;53.238;6.576;2023-03-01T11:04:35;4.90;99.90
54930;DHT22;40833;53.238;6.576;2023-03-01T11:07:01;5.60;99.90
54930;DHT22;40833;53.238;6.576;2023-03-01T11:09:32;5.10;99.90
54930;DHT22;40833;53.238;6.576;2023-03-01T11:12:08;5.30;99.90
54930;DHT22;40833;53.238;6.576;2023-03-01T11:14:39;5.40;99.90
54930;DHT22;40833;53.238;6.576;2023-03-01T11:19:36;5.60;99.90
54930;DHT22;40833;53.238;6.576;2023-03-01T11:22:07;5.70;99.90
54930;DHT22;40833;53.238;6.576;2023-03-01T11:24:45;5.80;99.90
54930;DHT22;40833;53.238;6.576;2023-03-01T11:32:20;5.90;99.90
54930;DHT22;40833;53.238;6.576;2023-03-01T11:40:22;6.00;99.90
54930;DHT22;40833;53.238;6.576;2023-03-01T11:50:52;6.20;99.90
54930;DHT22;40833;53.238;6.576;2023-03-01T11:54:06;6.20;99.90
54930;DHT22;40833;53.238;6.576;2023-03-01T12:07:45;6.60;99.90
54930;DHT22;40833;53.238;6.576;2023-03-01T12:16:03;6.60;99.90
54930;DHT22;40833;53.238;6.576;2023-03-01T12:21:53;6.80;99.90
54930;DHT22;40833;53.238;6.576;2023-03-01T12:30:27;7.00;99.90
54930;DHT22;40833;53.238;6.576;2023-03-01T12:35:47;7.20;99.90
54930;DHT22;40833;53.238;6.576;2023-03-01T12:46:35;8.20;99.90
54930;DHT22;40833;53.238;6.576;2023-03-01T12:51:37;7.50;99.90
54930;DHT22;40833;53.238;6.576;2023-03-01T12:54:39;7.50;99.90
54930;DHT22;40833;53.238;6.576;2023-03-01T13:02:48;7.60;99.90
54930;DHT22;40833;53.238;6.576;2023-03-01T13:07:58;7.80;99.90
54930;DHT22;40833;53.238;6.576;2023-03-01T13:10:31;8.30;99.90
54930;DHT22;40833;53.238;6.576;2023-03-01T13:13:13;7.90;99.90
54930;DHT22;40833;53.238;6.576;2023-03-01T13:15:39;7.80;99.90
54930;DHT22;40833;53.238;6.576;2023-03-01T13:20:49;7.90;99.90
54930;DHT22;40833;53.238;6.576;2023-03-01T13:26:08;8.10;99.90
54930;DHT22;40833;53.238;6.576;2023-03-01T13:28:46;8.10;99.90
54930;DHT22;40833;53.238;6.576;2023-03-01T13:33:51;8.50;99.90
54930;DHT22;40833;53.238;6.576;2023-03-01T13:39:31;8.20;99.90
54930;DHT22;40833;53.238;6.576;2023-03-01T13:41:58;8.30;99.90
54930;DHT22;40833;53.238;6.576;2023-03-01T13:44:37;8.60;99.90
54930;DHT22;40833;53.238;6.576;2023-03-01T13:47:13;8.30;99.90
54930;DHT22;40833;53.238;6.576;2023-03-01T13:49:49;8.30;99.90
54930;DHT22;40833;53.238;6.576;2023-03-01T13:57:42;8.80;99.90
54930;DHT22;40833;53.238;6.576;2023-03-01T14:05:32;9.70;99.90
54930;DHT22;40833;53.238;6.576;2023-03-01T14:07:58;9.50;99.90
54930;DHT22;40833;53.238;6.576;2023-03-01T14:10:43;9.40;99.90
54930;DHT22;40833;53.238;6.576;2023-03-01T14:21:08;9.50;99.90
54930;DHT22;40833;53.238;6.576;2023-03-01T14:23:34;9.60;99.90
54930;DHT22;40833;53.238;6.576;2023-03-01T14:26:01;9.60;99.90
54930;DHT22;40833;53.238;6.576;2023-03-01T14:28:31;9.60;99.90
54930;DHT22;40833;53.238;6.576;2023-03-01T14:31:03;9.60;99.90
54930;DHT22;40833;53.238;6.576;2023-03-01T14:33:55;9.60;99.90
54930;DHT22;40833;53.238;6.576;2023-03-01T14:36:28;9.70;99.90
54930;DHT22;40833;53.238;6.576;2023-03-01T14:38:54;9.90;99.90
54930;DHT22;40833;53.238;6.576;2023-03-01T14:41:24;10.00;99.90
54930;DHT22;40833;53.238;6.576;2023-03-01T14:43:56;10.10;99.90
54930;DHT22;40833;53.238;6.576;2023-03-01T14:46:29;10.30;99.90
54930;DHT22;40833;53.238;6.576;2023-03-01T14:49:09;10.40;99.90
54930;DHT22;40833;53.238;6.576;2023-03-01T14:51:38;10.60;99.90
54930;DHT22;40833;53.238;6.576;2023-03-01T14:54:31;10.50;99.90
54930;DHT22;40833;53.238;6.576;2023-03-01T14:57:01;10.50;99.90
54930;DHT22;40833;53.238;6.576;2023-03-01T14:59:27;10.60;99.90
54930;DHT22;40833;53.238;6.576;2023-03-01T15:01:56;10.70;99.90
54930;DHT22;40833;53.238;6.576;2023-03-01T15:04:23;10.80;99.90
54930;DHT22;40833;53.238;6.576;2023-03-01T15:06:57;11.10;99.90
54930;DHT22;40833;53.238;6.576;2023-03-01T15:09:31;11.10;99.90
54930;DHT22;40833;53.238;6.576;2023-03-01T15:11:57;11.20;99.90
54930;DHT22;40833;53.238;6.576;2023-03-01T15:14:28;11.20;99.90
54930;DHT22;40833;53.238;6.576;2023-03-01T15:16:55;11.20;99.90
54930;DHT22;40833;53.238;6.576;2023-03-01T15:19:23;11.20;99.90
54930;DHT22;40833;53.238;6.576;2023-03-01T15:21:51;11.20;99.90
54930;DHT22;40833;53.238;6.576;2023-03-01T15:24:20;11.30;99.90
54930;DHT22;40833;53.238;6.576;2023-03-01T15:26:56;11.20;99.90
54930;DHT22;40833;53.238;6.576;2023-03-01T15:29:25;11.20;99.90
54930;DHT22;40833;53.238;6.576;2023-03-01T15:32:29;11.20;99.90
54930;DHT22;40833;53.238;6.576;2023-03-01T15:34:57;11.20;99.90
54930;DHT22;40833;53.238;6.576;2023-03-01T15:40:19;11.30;99.90
54930;DHT22;40833;53.238;6.576;2023-03-01T15:42:46;11.20;99.90
54930;DHT22;40833;53.238;6.576;2023-03-01T15:47:47;11.00;99.90
54930;DHT22;40833;53.238;6.576;2023-03-01T15:50:26;10.70;99.90
54930;DHT22;40833;53.238;6.576;2023-03-01T15:52:53;10.40;99.90
54930;DHT22;40833;53.238;6.576;2023-03-01T15:57:47;10.10;99.90
54930;DHT22;40833;53.238;6.576;2023-03-01T16:00:14;10.00;99.90
54930;DHT22;40833;53.238;6.576;2023-03-01T16:02:41;9.90;99.90
54930;DHT22;40833;53.238;6.576;2023-03-01T16:05:23;9.60;99.90
54930;DHT22;40833;53.238;6.576;2023-03-01T16:07:50;9.10;99.90
54930;DHT22;40833;53.238;6.576;2023-03-01T16:10:16;8.70;99.90
54930;DHT22;40833;53.238;6.576;2023-03-01T16:12:42;8.30;99.90
54930;DHT22;40833;53.238;6.576;2023-03-01T16:15:18;8.50;99.90
54930;DHT22;40833;53.238;6.576;2023-03-01T16:17:45;7.80;99.90
54930;DHT22;40833;53.238;6.576;2023-03-01T16:20:11;7.70;99.90
54930;DHT22;40833;53.238;6.576;2023-03-01T16:22:36;7.50;99.90
54930;DHT22;40833;53.238;6.576;2023-03-01T16:25:03;7.30;99.90
54930;DHT22;40833;53.238;6.576;2023-03-01T16:27:29;7.20;99.90
54930;DHT22;40833;53.238;6.576;2023-03-01T16:29:54;7.10;99.90
54930;DHT22;40833;53.238;6.576;2023-03-01T16:32:20;7.00;99.90
54930;DHT22;40833;53.238;6.576;2023-03-01T16:34:45;6.80;99.90
54930;DHT22;40833;53.238;6.576;2023-03-01T16:37:15;6.70;99.90
54930;DHT22;40833;53.238;6.576;2023-03-01T16:39:40;6.60;99.90
54930;DHT22;40833;53.238;6.576;2023-03-01T16:42:06;6.50;99.90
54930;DHT22;40833;53.238;6.576;2023-03-01T16:44:32;6.40;99.90
54930;DHT22;40833;53.238;6.576;2023-03-01T16:46:57;6.30;99.90
54930;DHT22;40833;53.238;6.576;2023-03-01T16:49:23;6.20;99.90
54930;DHT22;40833;53.238;6.576;2023-03-01T16:51:49;6.10;99.90
54930;DHT22;40833;53.238;6.576;2023-03-01T16:54:15;6.00;99.90
54930;DHT22;40833;53.238;6.576;2023-03-01T16:56:40;6.50;99.90
54930;DHT22;40833;53.238;6.576;2023-03-01T16:59:06;5.90;99.90
54930;DHT22;40833;53.238;6.576;2023-03-01T17:01:32;5.90;99.90
54930;DHT22;40833;53.238;6.576;2023-03-01T17:04:04;5.80;99.90
54930;DHT22;40833;53.238;6.576;2023-03-01T17:06:30;6.10;99.90
54930;DHT22;40833;53.238;6.576;2023-03-01T17:08:58;6.10;99.90
54930;DHT22;40833;53.238;6.576;2023-03-01T17:11:24;5.90;99.90
54930;DHT22;40833;53.238;6.576;2023-03-01T17:13:50;5.60;99.90
54930;DHT22;40833;53.238;6.576;2023-03-01T17:16:19;5.60;99.90
54930;DHT22;40833;53.238;6.576;2023-03-01T17:18:45;5.50;99.90
54930;DHT22;40833;53.238;6.576;2023-03-01T17:21:11;5.40;99.90
54930;DHT22;40833;53.238;6.576;2023-03-01T17:23:39;6.20;99.90
54930;DHT22;40833;53.238;6.576;2023-03-01T17:26:06;5.70;99.90
54930;DHT22;40833;53.238;6.576;2023-03-01T17:28:33;5.20;99.90
54930;DHT22;40833;53.238;6.576;2023-03-01T17:31:00;5.10;99.90
54930;DHT22;40833;53.238;6.576;2023-03-01T17:33:27;5.00;99.90
54930;DHT22;40833;53.238;6.576;2023-03-01T17:35:56;4.90;99.90
54930;DHT22;40833;53.238;6.576;2023-03-01T17:38:22;4.90;99.90
54930;DHT22;40833;53.238;6.576;2023-03-01T17:40:48;5.10;99.90
54930;DHT22;40833;53.238;6.576;2023-03-01T17:43:15;4.80;99.90
54930;DHT22;40833;53.238;6.576;2023-03-01T17:45:41;6.10;99.90
54930;DHT22;40833;53.238;6.576;2023-03-01T17:48:13;4.90;99.90
54930;DHT22;40833;53.238;6.576;2023-03-01T17:50:39;5.70;99.90
54930;DHT22;40833;53.238;6.576;2023-03-01T17:53:06;6.60;99.90
54930;DHT22;40833;53.238;6.576;2023-03-01T17:55:38;5.90;99.90
54930;DHT22;40833;53.238;6.576;2023-03-01T17:58:05;6.30;99.90
54930;DHT22;40833;53.238;6.576;2023-03-01T18:00:32;4.20;99.90
54930;DHT22;40833;53.238;6.576;2023-03-01T18:02:58;4.10;99.90
54930;DHT22;40833;53.238;6.576;2023-03-01T18:05:24;4.00;99.90
54930;DHT22;40833;53.238;6.576;2023-03-01T18:07:50;4.00;99.90
54930;DHT22;40833;53.238;6.576;2023-03-01T18:10:17;4.70;99.90